createdAt,value
2019-03-24T00:01:15.101Z,4.82
2019-03-24T00:02:17.902Z,4.48
2019-03-24T00:03:21.254Z,4.48
2019-03-24T00:04:24.062Z,4.50
2019-03-24T00:05:26.937Z,4.46
2019-03-24T00:06:29.866Z,4.51
2019-03-24T00:07:35.567Z,4.51
2019-03-24T00:08:40.096Z,4.43
2019-03-24T00:09:43.364Z,4.37
2019-03-24T00:10:46.373Z,4.32
2019-03-24T00:11:49.227Z,4.32
2019-03-24T00:12:52.099Z,4.24
2019-03-24T00:13:55.287Z,4.40
2019-03-24T00:14:58.498Z,4.40
2019-03-24T00:16:01.426Z,4.45
2019-03-24T00:17:04.246Z,4.45
2019-03-24T00:18:07.151Z,4.21
2019-03-24T00:19:09.992Z,4.14
2019-03-24T00:20:13.159Z,4.22
2019-03-24T00:21:16.134Z,4.33
2019-03-24T00:22:23.044Z,4.29
2019-03-24T00:23:26.157Z,4.25
2019-03-24T00:24:30.162Z,4.33
2019-03-24T00:25:32.991Z,4.33
2019-03-24T00:26:36.569Z,4.11
2019-03-24T00:27:39.359Z,4.05
2019-03-24T00:28:42.214Z,4.05
2019-03-24T00:29:45.111Z,3.88
2019-03-24T00:30:47.946Z,3.96
2019-03-24T00:31:50.789Z,3.96
2019-03-24T00:32:54.034Z,4.18
2019-03-24T00:33:56.878Z,4.34
2019-03-24T00:34:59.824Z,4.39
2019-03-24T00:36:02.632Z,4.39
2019-03-24T00:37:05.525Z,4.37
2019-03-24T00:38:08.667Z,4.34
2019-03-24T00:39:12.003Z,4.38
2019-03-24T00:40:14.946Z,4.38
2019-03-24T00:41:17.768Z,4.40
2019-03-24T00:42:20.595Z,4.34
2019-03-24T00:43:23.801Z,4.34
2019-03-24T00:44:26.636Z,4.09
2019-03-24T00:45:36.747Z,4.14
2019-03-24T00:46:34.320Z,4.17
2019-03-24T00:47:37.135Z,4.23
2019-03-24T00:48:39.970Z,4.35
2019-03-24T00:49:42.778Z,4.41
2019-03-24T00:50:45.684Z,4.38
2019-03-24T00:51:50.069Z,4.30
2019-03-24T00:52:52.886Z,4.23
2019-03-24T00:53:56.164Z,4.20
2019-03-24T00:54:58.979Z,4.25
2019-03-24T00:56:01.849Z,4.31
2019-03-24T00:57:05.306Z,4.31
2019-03-24T00:58:08.461Z,4.40
2019-03-24T00:59:11.280Z,4.49
2019-03-24T01:00:14.100Z,4.49
2019-03-24T01:01:36.925Z,4.25
2019-03-24T01:02:46.211Z,4.06
2019-03-24T01:03:46.364Z,4.02
2019-03-24T01:04:50.990Z,4.09
2019-03-24T01:05:53.807Z,4.13
2019-03-24T01:06:56.674Z,4.13
2019-03-24T01:07:59.734Z,4.16
2019-03-24T01:09:03.124Z,4.03
2019-03-24T01:10:12.023Z,3.70
2019-03-24T01:11:10.558Z,3.70
2019-03-24T01:12:13.363Z,3.75
2019-03-24T01:13:16.729Z,3.71
2019-03-24T01:14:20.052Z,3.71
2019-03-24T01:15:23.357Z,3.83
2019-03-24T01:16:28.164Z,3.77
2019-03-24T01:17:30.994Z,3.77
2019-03-24T01:18:33.832Z,3.54
2019-03-24T01:19:36.664Z,3.53
2019-03-24T01:20:39.523Z,3.61
2019-03-24T01:21:42.391Z,3.68
2019-03-24T01:22:45.550Z,3.51
2019-03-24T01:23:48.398Z,3.48
2019-03-24T01:24:51.190Z,3.36
2019-03-24T01:25:54.076Z,3.37
2019-03-24T01:26:56.902Z,3.31
2019-03-24T01:28:00.101Z,3.31
2019-03-24T01:29:04.231Z,3.50
2019-03-24T01:30:07.222Z,3.41
2019-03-24T01:31:10.207Z,3.40
2019-03-24T01:32:14.420Z,3.40
2019-03-24T01:33:18.011Z,3.88
2019-03-24T01:34:20.848Z,3.93
2019-03-24T01:35:23.970Z,3.80
2019-03-24T01:36:26.866Z,3.64
2019-03-24T01:37:29.663Z,3.64
2019-03-24T01:38:32.544Z,3.46
2019-03-24T01:39:35.358Z,3.49
2019-03-24T01:40:38.580Z,3.39
2019-03-24T01:41:41.696Z,3.39
2019-03-24T01:42:44.503Z,3.45
2019-03-24T01:43:47.404Z,3.62
2019-03-24T01:44:52.390Z,3.71
2019-03-24T01:45:58.856Z,3.75
2019-03-24T01:46:59.694Z,3.89
2019-03-24T01:48:02.800Z,3.94
2019-03-24T01:49:05.716Z,3.90
2019-03-24T01:50:11.343Z,4.01
2019-03-24T01:51:14.231Z,4.11
2019-03-24T01:52:17.738Z,4.11
2019-03-24T01:53:20.569Z,4.26
2019-03-24T01:54:23.688Z,4.30
2019-03-24T01:55:29.079Z,4.30
2019-03-24T01:56:31.903Z,4.55
2019-03-24T01:57:34.742Z,4.55
2019-03-24T01:58:37.927Z,4.50
2019-03-24T01:59:40.748Z,4.62
2019-03-24T02:00:43.903Z,4.65
2019-03-24T02:01:47.108Z,4.69
2019-03-24T02:02:49.935Z,4.70
2019-03-24T02:03:52.801Z,4.70
2019-03-24T02:04:55.635Z,4.70
2019-03-24T02:05:58.482Z,4.69
2019-03-24T02:07:01.662Z,4.66
2019-03-24T02:08:04.838Z,4.68
2019-03-24T02:09:08.334Z,4.68
2019-03-24T02:10:11.169Z,4.68
2019-03-24T02:11:14.063Z,4.60
2019-03-24T02:12:16.885Z,4.65
2019-03-24T02:13:20.009Z,4.53
2019-03-24T02:14:22.836Z,4.53
2019-03-24T02:15:25.632Z,4.59
2019-03-24T02:16:28.582Z,4.58
2019-03-24T02:17:32.288Z,4.58
2019-03-24T02:18:35.549Z,4.56
2019-03-24T02:19:38.664Z,4.50
2019-03-24T02:20:41.497Z,4.52
2019-03-24T02:21:44.306Z,4.52
2019-03-24T02:22:47.482Z,4.55
2019-03-24T02:23:50.357Z,4.65
2019-03-24T02:24:53.166Z,4.76
2019-03-24T02:25:56.640Z,4.58
2019-03-24T02:26:59.493Z,4.61
2019-03-24T02:28:02.300Z,4.66
2019-03-24T02:29:05.188Z,4.70
2019-03-24T02:30:08.089Z,4.64
2019-03-24T02:31:10.940Z,4.65
2019-03-24T02:32:14.030Z,4.72
2019-03-24T02:33:16.831Z,4.72
2019-03-24T02:34:20.080Z,4.79
2019-03-24T02:35:22.931Z,4.75
2019-03-24T02:36:25.733Z,4.65
2019-03-24T02:37:30.063Z,4.66
2019-03-24T02:38:33.500Z,4.66
2019-03-24T02:39:36.322Z,4.78
2019-03-24T02:40:39.337Z,4.85
2019-03-24T02:41:42.178Z,4.83
2019-03-24T02:42:45.041Z,4.78
2019-03-24T02:43:47.836Z,4.84
2019-03-24T02:44:51.232Z,4.80
2019-03-24T02:45:57.375Z,4.80
2019-03-24T02:47:00.170Z,4.84
2019-03-24T02:48:03.721Z,4.86
2019-03-24T02:49:06.582Z,4.86
2019-03-24T02:50:09.784Z,4.86
2019-03-24T02:51:13.239Z,4.67
2019-03-24T02:52:16.441Z,4.65
2019-03-24T02:53:19.270Z,4.69
2019-03-24T02:54:22.158Z,4.73
2019-03-24T02:55:27.986Z,4.78
2019-03-24T02:56:31.086Z,4.87
2019-03-24T02:57:37.392Z,4.79
2019-03-24T02:58:40.623Z,4.87
2019-03-24T02:59:43.506Z,4.78
2019-03-24T03:00:46.314Z,4.78
2019-03-24T03:01:49.172Z,4.80
2019-03-24T03:02:54.848Z,4.81
2019-03-24T03:03:57.946Z,4.88
2019-03-24T03:05:00.840Z,4.88
2019-03-24T03:06:05.972Z,4.88
2019-03-24T03:07:09.648Z,4.85
2019-03-24T03:08:12.493Z,4.85
2019-03-24T03:09:15.300Z,4.86
2019-03-24T03:10:21.161Z,4.72
2019-03-24T03:11:28.838Z,4.52
2019-03-24T03:12:31.648Z,4.47
2019-03-24T03:13:34.495Z,4.68
2019-03-24T03:14:37.315Z,4.68
2019-03-24T03:15:40.248Z,4.78
2019-03-24T03:16:43.440Z,4.78
2019-03-24T03:17:46.255Z,4.80
2019-03-24T03:18:51.236Z,4.81
2019-03-24T03:19:54.060Z,4.88
2019-03-24T03:20:56.924Z,4.90
2019-03-24T03:21:59.945Z,4.87
2019-03-24T03:23:07.190Z,4.76
2019-03-24T03:24:11.414Z,4.69
2019-03-24T03:25:14.262Z,4.69
2019-03-24T03:26:19.656Z,4.83
2019-03-24T03:27:22.467Z,4.88
2019-03-24T03:28:25.565Z,4.85
2019-03-24T03:29:29.798Z,4.76
2019-03-24T03:30:35.096Z,4.76
2019-03-24T03:31:38.085Z,4.63
2019-03-24T03:32:41.296Z,4.44
2019-03-24T03:33:46.361Z,4.57
2019-03-24T03:34:51.075Z,4.48
2019-03-24T03:35:53.891Z,4.49
2019-03-24T03:36:57.121Z,4.49
2019-03-24T03:38:00.334Z,4.57
2019-03-24T03:39:06.284Z,4.59
2019-03-24T03:40:09.454Z,4.48
2019-03-24T03:41:12.255Z,4.48
2019-03-24T03:42:15.149Z,4.40
2019-03-24T03:43:20.920Z,4.45
2019-03-24T03:44:23.714Z,4.45
2019-03-24T03:45:26.841Z,4.41
2019-03-24T03:46:29.629Z,4.44
2019-03-24T03:47:35.634Z,4.44
2019-03-24T03:48:38.576Z,4.57
2019-03-24T03:49:41.524Z,4.57
2019-03-24T03:50:44.365Z,4.63
2019-03-24T03:51:47.485Z,4.70
2019-03-24T03:52:50.342Z,4.67
2019-03-24T03:53:53.177Z,4.67
2019-03-24T03:54:58.283Z,4.67
2019-03-24T03:56:01.295Z,4.92
2019-03-24T03:57:06.361Z,4.92
2019-03-24T03:58:11.524Z,4.77
2019-03-24T03:59:14.359Z,4.71
2019-03-24T04:00:17.413Z,4.76
2019-03-24T04:01:20.324Z,4.77
2019-03-24T04:02:23.165Z,4.77
2019-03-24T04:03:25.983Z,4.86
2019-03-24T04:04:30.312Z,4.76
2019-03-24T04:05:33.538Z,4.76
2019-03-24T04:06:36.463Z,4.89
2019-03-24T04:07:41.110Z,4.91
2019-03-24T04:08:44.324Z,4.91
2019-03-24T04:09:47.201Z,4.98
2019-03-24T04:10:50.745Z,4.98
2019-03-24T04:11:54.091Z,4.91
2019-03-24T04:13:00.691Z,4.94
2019-03-24T04:14:05.101Z,4.94
2019-03-24T04:15:11.354Z,4.93
2019-03-24T04:16:14.236Z,4.80
2019-03-24T04:17:18.647Z,4.74
2019-03-24T04:18:23.459Z,4.86
2019-03-24T04:19:26.317Z,4.82
2019-03-24T04:20:29.535Z,4.82
2019-03-24T04:21:33.469Z,4.93
2019-03-24T04:22:36.576Z,4.93
2019-03-24T04:23:40.583Z,4.97
2019-03-24T04:24:43.406Z,5.03
2019-03-24T04:25:46.245Z,4.97
2019-03-24T04:26:49.743Z,4.99
2019-03-24T04:27:52.580Z,4.89
2019-03-24T04:28:55.631Z,4.89
2019-03-24T04:30:02.414Z,4.66
2019-03-24T04:31:05.517Z,4.66
2019-03-24T04:32:08.795Z,4.76
2019-03-24T04:33:11.781Z,4.82
2019-03-24T04:34:15.643Z,4.92
2019-03-24T04:35:22.009Z,4.98
2019-03-24T04:36:25.155Z,5.00
2019-03-24T04:37:27.981Z,5.01
2019-03-24T04:38:30.789Z,4.97
2019-03-24T04:39:34.312Z,4.97
2019-03-24T04:40:37.571Z,5.15
2019-03-24T04:41:41.170Z,5.19
2019-03-24T04:42:44.294Z,5.19
2019-03-24T04:43:47.106Z,4.98
2019-03-24T04:44:49.993Z,4.91
2019-03-24T04:45:53.238Z,4.91
2019-03-24T04:46:56.055Z,4.98
2019-03-24T04:47:58.902Z,5.05
2019-03-24T04:49:02.027Z,5.14
2019-03-24T04:50:04.917Z,5.20
2019-03-24T04:51:07.746Z,5.17
2019-03-24T04:52:10.574Z,5.13
2019-03-24T04:53:13.475Z,5.04
2019-03-24T04:54:16.692Z,4.95
2019-03-24T04:55:20.314Z,5.00
2019-03-24T04:56:23.133Z,5.06
2019-03-24T04:57:25.961Z,5.11
2019-03-24T04:58:28.919Z,5.16
2019-03-24T04:59:31.726Z,5.23
2019-03-24T05:00:34.576Z,5.27
2019-03-24T05:01:38.151Z,5.24
2019-03-24T05:02:41.079Z,5.21
2019-03-24T05:03:43.914Z,5.18
2019-03-24T05:04:46.719Z,5.19
2019-03-24T05:05:49.576Z,5.19
2019-03-24T05:06:52.801Z,5.17
2019-03-24T05:07:56.428Z,5.15
2019-03-24T05:08:59.243Z,5.05
2019-03-24T05:10:02.083Z,5.09
2019-03-24T05:11:05.310Z,5.06
2019-03-24T05:12:08.123Z,5.06
2019-03-24T05:13:10.970Z,5.04
2019-03-24T05:14:16.763Z,5.04
2019-03-24T05:15:19.623Z,5.06
2019-03-24T05:16:23.025Z,5.10
2019-03-24T05:17:27.221Z,5.08
2019-03-24T05:18:31.809Z,5.08
2019-03-24T05:19:34.619Z,4.99
2019-03-24T05:20:37.783Z,4.82
2019-03-24T05:21:40.715Z,4.83
2019-03-24T05:22:43.613Z,4.69
2019-03-24T05:23:46.429Z,4.77
2019-03-24T05:24:49.245Z,4.77
2019-03-24T05:25:52.058Z,4.95
2019-03-24T05:26:55.257Z,4.83
2019-03-24T05:27:58.443Z,4.92
2019-03-24T05:29:01.280Z,4.92
2019-03-24T05:30:04.553Z,4.68
2019-03-24T05:31:10.231Z,4.73
2019-03-24T05:32:13.107Z,4.60
2019-03-24T05:33:16.205Z,4.51
2019-03-24T05:34:19.019Z,4.55
2019-03-24T05:35:21.861Z,4.71
2019-03-24T05:36:25.134Z,4.71
2019-03-24T05:37:27.983Z,4.86
2019-03-24T05:38:30.864Z,4.93
2019-03-24T05:39:34.007Z,5.02
2019-03-24T05:40:36.875Z,4.97
2019-03-24T05:41:39.778Z,4.88
2019-03-24T05:42:42.586Z,4.87
2019-03-24T05:43:45.486Z,4.87
2019-03-24T05:44:48.316Z,4.85
2019-03-24T05:45:53.338Z,4.85
2019-03-24T05:46:56.162Z,4.88
2019-03-24T05:47:59.041Z,4.98
2019-03-24T05:49:01.867Z,5.06
2019-03-24T05:50:05.493Z,5.07
2019-03-24T05:51:08.375Z,5.07
2019-03-24T05:52:11.563Z,5.17
2019-03-24T05:53:14.458Z,5.22
2019-03-24T05:54:17.378Z,5.28
2019-03-24T05:55:20.194Z,5.33
2019-03-24T05:56:22.999Z,5.30
2019-03-24T05:57:25.797Z,5.28
2019-03-24T05:58:29.004Z,5.27
2019-03-24T05:59:31.830Z,5.15
2019-03-24T06:00:34.712Z,5.05
2019-03-24T06:01:41.633Z,5.09
2019-03-24T06:02:44.461Z,4.98
2019-03-24T06:03:47.374Z,4.99
2019-03-24T06:04:50.563Z,4.99
2019-03-24T06:05:53.403Z,4.86
2019-03-24T06:06:56.239Z,4.89
2019-03-24T06:07:59.431Z,4.89
2019-03-24T06:09:02.277Z,4.90
2019-03-24T06:10:08.989Z,4.97
2019-03-24T06:11:11.834Z,5.05
2019-03-24T06:12:15.912Z,5.05
2019-03-24T06:13:18.775Z,5.15
2019-03-24T06:14:21.985Z,5.15
2019-03-24T06:15:24.879Z,5.23
2019-03-24T06:16:27.743Z,5.17
2019-03-24T06:17:31.409Z,5.17
2019-03-24T06:18:34.291Z,5.06
2019-03-24T06:19:37.141Z,5.06
2019-03-24T06:20:40.032Z,5.06
2019-03-24T06:21:43.211Z,5.13
2019-03-24T06:22:46.110Z,5.13
2019-03-24T06:23:49.248Z,4.99
2019-03-24T06:24:52.450Z,4.78
2019-03-24T06:25:55.394Z,4.78
2019-03-24T06:26:58.767Z,4.83
2019-03-24T06:28:02.104Z,4.88
2019-03-24T06:29:04.948Z,4.88
2019-03-24T06:43:42.591Z,5.11
2019-03-24T06:44:45.521Z,5.15
2019-03-24T06:45:48.552Z,5.15
2019-03-24T06:46:51.768Z,5.11
2019-03-24T06:47:58.156Z,5.11
2019-03-24T06:48:59.838Z,5.19
2019-03-24T06:50:03.077Z,5.28
2019-03-24T06:51:05.892Z,5.30
2019-03-24T06:52:08.804Z,5.44
2019-03-24T06:53:11.643Z,5.59
2019-03-24T06:54:14.472Z,5.72
2019-03-24T06:55:17.586Z,5.76
2019-03-24T06:56:20.443Z,5.76
2019-03-24T06:57:23.622Z,5.62
2019-03-24T06:58:27.706Z,5.62
2019-03-24T06:59:30.986Z,5.50
2019-03-24T07:00:33.826Z,5.50
2019-03-24T07:01:40.903Z,5.57
2019-03-24T07:02:45.307Z,5.57
2019-03-24T07:03:51.428Z,5.56
2019-03-24T07:04:58.552Z,5.44
2019-03-24T07:06:02.501Z,5.27
2019-03-24T07:07:13.703Z,5.37
2019-03-24T07:08:17.262Z,5.46
2019-03-24T07:09:22.682Z,5.46
2019-03-24T07:10:28.604Z,5.41
2019-03-24T07:11:31.490Z,5.43
2019-03-24T07:12:34.343Z,5.41
2019-03-24T07:13:37.256Z,5.42
2019-03-24T07:14:40.485Z,5.50
2019-03-24T07:15:43.354Z,5.62
2019-03-24T07:16:46.169Z,5.69
2019-03-24T07:17:50.110Z,5.72
2019-03-24T07:18:52.956Z,5.74
2019-03-24T07:19:56.215Z,5.80
2019-03-24T07:20:59.456Z,5.85
2019-03-24T07:22:04.099Z,5.94
2019-03-24T07:23:06.939Z,6.01
2019-03-24T07:24:09.747Z,6.06
2019-03-24T07:25:12.582Z,6.15
2019-03-24T07:26:18.748Z,6.14
2019-03-24T07:27:21.594Z,6.14
2019-03-24T07:28:25.027Z,6.18
2019-03-24T07:29:27.948Z,6.16
2019-03-24T07:30:31.163Z,6.16
2019-03-24T07:31:36.305Z,6.22
2019-03-24T07:32:39.453Z,6.20
2019-03-24T07:33:45.058Z,6.18
2019-03-24T07:34:47.938Z,6.22
2019-03-24T07:35:50.774Z,6.18
2019-03-24T07:36:54.872Z,6.16
2019-03-24T07:37:57.704Z,6.17
2019-03-24T07:39:00.946Z,6.23
2019-03-24T07:40:03.776Z,6.23
2019-03-24T07:41:06.612Z,6.14
2019-03-24T07:42:09.498Z,6.05
2019-03-24T07:43:12.455Z,6.07
2019-03-24T07:44:18.146Z,6.17
2019-03-24T07:45:20.993Z,6.19
2019-03-24T07:46:23.855Z,6.20
2019-03-24T07:47:26.775Z,6.20
2019-03-24T07:48:29.588Z,6.38
2019-03-24T07:49:37.018Z,6.47
2019-03-24T07:50:42.547Z,6.40
2019-03-24T07:51:47.248Z,6.36
2019-03-24T07:52:50.142Z,6.45
2019-03-24T07:53:53.100Z,6.45
2019-03-24T07:54:56.017Z,6.49
2019-03-24T07:56:01.047Z,6.50
2019-03-24T07:57:04.253Z,6.39
2019-03-24T07:58:07.075Z,6.39
2019-03-24T07:59:10.319Z,6.38
2019-03-24T08:00:13.169Z,6.38
2019-03-24T08:01:16.027Z,6.47
2019-03-24T08:02:18.908Z,6.44
2019-03-24T08:03:21.734Z,6.45
2019-03-24T08:04:24.597Z,6.40
2019-03-24T08:05:30.586Z,6.40
2019-03-24T08:06:33.428Z,6.28
2019-03-24T08:07:39.027Z,6.31
2019-03-24T08:08:44.398Z,6.31
2019-03-24T08:09:47.473Z,6.30
2019-03-24T08:10:50.297Z,6.42
2019-03-24T08:11:53.199Z,6.47
2019-03-24T08:12:56.134Z,6.61
2019-03-24T08:13:59.121Z,6.70
2019-03-24T08:15:02.311Z,6.68
2019-03-24T08:16:05.596Z,6.69
2019-03-24T08:17:10.107Z,6.69
2019-03-24T08:18:13.005Z,6.69
2019-03-24T08:19:15.868Z,6.80
2019-03-24T08:20:19.371Z,6.84
2019-03-24T08:21:22.474Z,6.76
2019-03-24T08:22:25.324Z,6.72
2019-03-24T08:23:28.226Z,6.63
2019-03-24T08:24:31.099Z,6.66
2019-03-24T08:25:36.361Z,6.71
2019-03-24T08:26:39.178Z,6.74
2019-03-24T08:27:45.255Z,6.81
2019-03-24T08:28:48.198Z,6.97
2019-03-24T08:29:53.348Z,6.83
2019-03-24T08:30:56.189Z,6.82
2019-03-24T08:31:59.387Z,6.87
2019-03-24T08:33:03.671Z,6.93
2019-03-24T08:34:09.839Z,6.96
2019-03-24T08:35:12.712Z,6.96
2019-03-24T08:36:15.768Z,6.85
2019-03-24T08:37:19.220Z,6.96
2019-03-24T08:38:22.752Z,6.98
2019-03-24T08:39:25.668Z,7.01
2019-03-24T08:40:28.847Z,7.01
2019-03-24T08:41:31.698Z,7.21
2019-03-24T08:42:34.546Z,7.26
2019-03-24T08:43:37.361Z,7.00
2019-03-24T08:44:40.720Z,6.91
2019-03-24T08:45:43.557Z,7.06
2019-03-24T08:46:47.187Z,7.06
2019-03-24T08:47:50.032Z,7.20
2019-03-24T08:48:56.286Z,7.20
2019-03-24T08:50:04.013Z,7.21
2019-03-24T08:51:15.135Z,7.11
2019-03-24T08:52:18.267Z,7.09
2019-03-24T08:53:23.038Z,7.03
2019-03-24T08:54:26.349Z,7.18
2019-03-24T08:55:29.187Z,7.30
2019-03-24T08:56:32.048Z,7.30
2019-03-24T08:57:37.817Z,7.48
2019-03-24T08:58:40.659Z,7.37
2019-03-24T08:59:43.811Z,7.37
2019-03-24T09:00:47.350Z,7.34
2019-03-24T09:02:00.762Z,7.34
2019-03-24T09:03:06.098Z,7.28
2019-03-24T09:04:13.052Z,7.28
2019-03-24T09:05:15.970Z,7.59
2019-03-24T09:06:19.095Z,7.58
2019-03-24T09:07:22.710Z,7.31
2019-03-24T09:08:25.618Z,7.40
2019-03-24T09:09:30.864Z,7.40
2019-03-24T09:10:34.070Z,7.49
2019-03-24T09:11:37.337Z,7.59
2019-03-24T09:12:40.182Z,7.56
2019-03-24T09:13:43.058Z,7.58
2019-03-24T09:14:45.923Z,7.76
2019-03-24T09:15:51.348Z,7.62
2019-03-24T09:16:54.244Z,7.77
2019-03-24T09:17:57.376Z,7.92
2019-03-24T09:19:00.229Z,7.92
2019-03-24T09:20:03.120Z,8.00
2019-03-24T09:21:07.069Z,8.00
2019-03-24T09:22:09.887Z,8.00
2019-03-24T09:23:15.830Z,8.16
2019-03-24T09:24:19.020Z,7.87
2019-03-24T09:25:22.309Z,7.87
2019-03-24T09:26:25.284Z,8.05
2019-03-24T09:27:28.130Z,8.15
2019-03-24T09:28:30.963Z,8.22
2019-03-24T09:29:33.816Z,8.20
2019-03-24T09:30:36.981Z,8.25
2019-03-24T09:31:39.889Z,8.27
2019-03-24T09:32:42.742Z,8.22
2019-03-24T09:33:45.608Z,8.22
2019-03-24T09:34:51.903Z,8.22
2019-03-24T09:35:58.956Z,8.29
2019-03-24T09:37:05.076Z,8.29
2019-03-24T09:38:13.377Z,8.19
2019-03-24T09:39:16.216Z,8.23
2019-03-24T09:40:19.093Z,8.36
2019-03-24T09:41:23.891Z,8.36
2019-03-24T09:42:30.349Z,8.20
2019-03-24T09:43:38.828Z,8.20
2019-03-24T09:44:45.789Z,8.44
2019-03-24T09:45:48.647Z,8.50
2019-03-24T09:46:53.241Z,8.61
2019-03-24T09:47:56.057Z,8.60
2019-03-24T09:49:05.602Z,8.66
2019-03-24T09:50:09.458Z,8.85
2019-03-24T09:51:21.473Z,8.85
2019-03-24T09:52:24.379Z,8.96
2019-03-24T09:53:29.933Z,8.96
2019-03-24T09:54:33.067Z,9.00
2019-03-24T09:55:36.507Z,8.95
2019-03-24T09:56:39.411Z,8.91
2019-03-24T09:57:42.622Z,8.99
2019-03-24T09:58:48.348Z,9.01
2019-03-24T09:59:51.179Z,9.02
2019-03-24T10:00:56.296Z,8.93
2019-03-24T10:02:05.741Z,9.01
2019-03-24T10:03:10.122Z,8.97
2019-03-24T10:04:13.016Z,9.00
2019-03-24T10:05:16.144Z,9.00
2019-03-24T10:06:22.079Z,8.94
2019-03-24T10:07:25.384Z,8.96
2019-03-24T10:08:31.039Z,8.90
2019-03-24T10:09:34.247Z,8.90
2019-03-24T10:10:40.153Z,8.95
2019-03-24T10:11:49.095Z,8.95
2019-03-24T10:12:52.154Z,8.97
2019-03-24T10:13:56.534Z,8.98
2019-03-24T10:14:59.694Z,8.96
2019-03-24T10:16:02.593Z,9.13
2019-03-24T10:17:07.109Z,9.13
2019-03-24T10:18:16.318Z,9.14
2019-03-24T10:19:19.605Z,9.12
2019-03-24T10:20:22.437Z,9.12
2019-03-24T10:21:31.360Z,9.09
2019-03-24T10:22:32.642Z,9.10
2019-03-24T10:23:35.608Z,9.13
2019-03-24T10:24:47.287Z,9.14
2019-03-24T10:25:59.153Z,9.14
2019-03-24T10:27:05.362Z,9.17
2019-03-24T10:28:10.666Z,9.11
2019-03-24T10:29:13.617Z,9.15
2019-03-24T10:30:17.852Z,9.15
2019-03-24T10:31:20.670Z,9.10
2019-03-24T10:32:25.225Z,9.17
2019-03-24T10:33:33.985Z,9.17
2019-03-24T10:34:38.713Z,9.16
2019-03-24T10:35:41.986Z,9.20
2019-03-24T10:36:45.263Z,9.27
2019-03-24T10:37:53.372Z,9.34
2019-03-24T10:38:59.015Z,9.36
2019-03-24T10:40:04.247Z,9.36
2019-03-24T10:41:07.225Z,9.47
2019-03-24T10:42:10.125Z,9.47
2019-03-24T10:43:15.242Z,9.58
2019-03-24T10:44:18.231Z,9.50
2019-03-24T10:45:22.607Z,9.61
2019-03-24T10:46:28.178Z,9.53
2019-03-24T10:47:30.499Z,9.41
2019-03-24T10:48:36.765Z,9.33
2019-03-24T10:49:39.602Z,9.43
2019-03-24T10:50:47.206Z,9.45
2019-03-24T10:51:50.136Z,9.45
2019-03-24T10:52:53.317Z,9.57
2019-03-24T10:53:56.238Z,9.57
2019-03-24T10:55:04.851Z,9.59
2019-03-24T10:56:09.913Z,9.56
2019-03-24T10:57:13.569Z,9.56
2019-03-24T10:58:21.118Z,9.51
2019-03-24T10:59:24.247Z,9.52
2019-03-24T11:00:30.160Z,9.61
2019-03-24T11:01:33.489Z,9.53
2019-03-24T11:02:42.261Z,9.61
2019-03-24T11:03:46.150Z,9.61
2019-03-24T11:04:51.529Z,9.20
2019-03-24T11:05:54.675Z,9.22
2019-03-24T11:06:57.647Z,9.22
2019-03-24T11:08:00.485Z,9.22
2019-03-24T11:09:07.507Z,9.30
2019-03-24T11:10:14.847Z,9.40
2019-03-24T11:11:18.070Z,9.22
2019-03-24T11:12:26.583Z,9.38
2019-03-24T11:13:29.504Z,9.49
2019-03-24T11:14:35.479Z,9.55
2019-03-24T11:15:38.450Z,9.55
2019-03-24T11:16:46.381Z,9.75
2019-03-24T11:17:49.592Z,9.76
2019-03-24T11:18:52.936Z,9.79
2019-03-24T11:19:55.769Z,9.68
2019-03-24T11:20:58.790Z,9.68
2019-03-24T11:22:01.868Z,9.68
2019-03-24T11:23:04.865Z,9.68
2019-03-24T11:24:07.720Z,9.65
2019-03-24T11:25:11.129Z,9.62
2019-03-24T11:26:14.010Z,9.62
2019-03-24T11:27:19.625Z,9.51
2019-03-24T11:28:22.468Z,9.55
2019-03-24T11:29:25.477Z,9.55
2019-03-24T11:42:44.453Z,9.62
2019-03-24T11:43:48.193Z,9.33
2019-03-24T11:44:51.103Z,9.37
2019-03-24T11:45:54.428Z,9.50
2019-03-24T11:47:04.324Z,9.52
2019-03-24T11:48:08.578Z,9.60
2019-03-24T11:49:14.295Z,9.64
2019-03-24T11:50:17.565Z,9.66
2019-03-24T11:51:20.724Z,9.72
2019-03-24T11:52:23.781Z,9.75
2019-03-24T11:53:29.372Z,9.79
2019-03-24T11:54:34.766Z,9.79
2019-03-24T11:55:44.238Z,9.68
2019-03-24T11:56:48.391Z,9.68
2019-03-24T11:58:05.256Z,9.64
2019-03-24T11:59:00.615Z,9.65
2019-03-24T12:00:05.294Z,9.78
2019-03-24T12:01:09.047Z,9.78
2019-03-24T12:02:12.785Z,9.91
2019-03-24T12:03:19.041Z,9.91
2019-03-24T12:04:26.205Z,9.88
2019-03-24T12:05:32.163Z,10.16
2019-03-24T12:06:41.277Z,10.18
2019-03-24T12:07:44.681Z,10.18
2019-03-24T12:08:49.689Z,10.44
2019-03-24T12:09:52.669Z,10.61
2019-03-24T12:10:55.653Z,10.63
2019-03-24T12:11:58.707Z,10.63
2019-03-24T12:13:02.001Z,10.81
2019-03-24T12:14:05.485Z,10.89
2019-03-24T12:15:10.538Z,11.01
2019-03-24T12:16:13.843Z,11.01
2019-03-24T12:17:18.172Z,11.05
2019-03-24T12:18:21.157Z,11.04
2019-03-24T12:19:27.150Z,10.82
2019-03-24T12:20:34.745Z,10.87
2019-03-24T12:21:40.197Z,11.18
2019-03-24T12:22:46.221Z,11.28
2019-03-24T12:23:49.489Z,11.31
2019-03-24T12:25:01.069Z,11.12
2019-03-24T12:26:04.975Z,11.06
2019-03-24T12:27:09.859Z,11.06
2019-03-24T12:28:15.801Z,11.09
2019-03-24T12:29:18.620Z,11.18
2019-03-24T12:30:24.629Z,11.30
2019-03-24T12:31:28.741Z,10.88
2019-03-24T12:32:34.026Z,10.88
2019-03-24T12:33:37.313Z,11.17
2019-03-24T12:34:46.323Z,10.86
2019-03-24T12:35:47.594Z,10.58
2019-03-24T12:36:51.491Z,10.77
2019-03-24T12:37:54.362Z,10.97
2019-03-24T12:38:57.195Z,10.62
2019-03-24T12:40:00.371Z,10.62
2019-03-24T12:41:03.403Z,10.67
2019-03-24T12:42:06.351Z,10.63
2019-03-24T12:43:19.111Z,10.63
2019-03-24T12:44:14.807Z,10.76
2019-03-24T12:45:19.214Z,10.76
2019-03-24T12:46:22.129Z,10.91
2019-03-24T12:47:28.166Z,10.91
2019-03-24T12:48:36.420Z,11.31
2019-03-24T12:49:40.186Z,11.33
2019-03-24T12:50:45.661Z,11.33
2019-03-24T12:51:49.710Z,11.24
2019-03-24T12:52:57.966Z,11.28
2019-03-24T12:54:00.861Z,11.65
2019-03-24T12:55:03.795Z,11.50
2019-03-24T12:56:09.224Z,11.50
2019-03-24T12:57:14.652Z,11.49
2019-03-24T12:58:21.972Z,11.74
2019-03-24T12:59:33.818Z,11.61
2019-03-24T13:00:36.692Z,11.77
2019-03-24T13:01:41.342Z,12.45
2019-03-24T13:02:48.559Z,12.90
2019-03-24T13:04:03.001Z,13.01
2019-03-24T13:05:08.309Z,13.01
2019-03-24T13:06:19.030Z,13.29
2019-03-24T13:07:24.135Z,13.53
2019-03-24T13:08:33.993Z,13.39
2019-03-24T13:09:46.362Z,13.36
2019-03-24T13:11:04.779Z,13.36
2019-03-24T13:12:09.232Z,13.61
2019-03-24T13:13:14.806Z,13.61
2019-03-24T13:14:25.926Z,13.79
2019-03-24T13:16:57.101Z,13.54
2019-03-24T13:18:01.510Z,13.65
2019-03-24T13:19:09.102Z,13.42
2019-03-24T13:20:26.685Z,13.56
2019-03-24T13:21:20.643Z,12.74
2019-03-24T13:22:24.586Z,12.91
2019-03-24T13:23:34.760Z,13.33
2019-03-24T13:24:38.122Z,13.45
2019-03-24T13:25:43.180Z,13.59
2019-03-24T13:26:48.784Z,13.69
2019-03-24T13:27:57.884Z,13.85
2019-03-24T13:29:03.220Z,13.85
2019-03-24T13:30:09.070Z,13.96
2019-03-24T13:31:11.733Z,14.25
2019-03-24T13:32:18.161Z,14.79
2019-03-24T13:33:23.691Z,14.10
2019-03-24T13:34:26.748Z,13.36
2019-03-24T13:35:35.494Z,12.90
2019-03-24T13:36:41.787Z,13.61
2019-03-24T13:37:47.717Z,14.58
2019-03-24T13:38:53.838Z,14.30
2019-03-24T13:40:17.636Z,14.30
2019-03-24T13:41:47.560Z,12.24
2019-03-24T13:42:57.261Z,12.24
2019-03-24T13:44:00.223Z,12.55
2019-03-24T13:45:15.669Z,12.15
2019-03-24T13:46:21.326Z,12.15
2019-03-24T13:47:27.379Z,12.33
2019-03-24T13:48:34.737Z,12.47
2019-03-24T13:49:51.369Z,12.66
2019-03-24T13:50:58.216Z,12.33
2019-03-24T13:52:06.082Z,11.96
2019-03-24T13:53:12.266Z,12.35
2019-03-24T13:54:25.326Z,12.72
2019-03-24T13:55:34.552Z,12.87
2019-03-24T13:56:40.751Z,12.87
2019-03-24T13:57:45.049Z,13.01
2019-03-24T13:58:52.426Z,13.46
2019-03-24T13:59:57.228Z,13.78
2019-03-24T14:01:06.422Z,14.05
2019-03-24T14:02:12.793Z,14.06
2019-03-24T14:03:16.288Z,13.96
2019-03-24T14:04:23.805Z,13.96
2019-03-24T14:05:28.809Z,14.63
2019-03-24T14:06:31.522Z,14.63
2019-03-24T14:07:39.948Z,13.47
2019-03-24T14:08:44.772Z,13.38
2019-03-24T14:09:49.625Z,13.21
2019-03-24T14:10:54.450Z,13.21
2019-03-24T14:12:02.839Z,13.02
2019-03-24T14:13:06.178Z,12.93
2019-03-24T14:14:10.453Z,12.68
2019-03-24T14:15:17.925Z,12.29
2019-03-24T14:16:21.372Z,12.25
2019-03-24T14:17:28.396Z,12.15
2019-03-24T14:18:31.451Z,12.32
2019-03-24T14:19:43.692Z,12.98
2019-03-24T14:20:44.074Z,13.69
2019-03-24T14:21:47.558Z,13.48
2019-03-24T14:22:50.855Z,13.48
2019-03-24T14:23:56.876Z,13.45
2019-03-24T14:25:00.432Z,12.70
2019-03-24T14:26:05.871Z,12.69
2019-03-24T14:27:08.699Z,12.87
2019-03-24T14:28:16.909Z,12.91
2019-03-24T14:29:21.719Z,12.87
2019-03-24T14:30:27.232Z,12.87
2019-03-24T14:31:34.776Z,12.55
2019-03-24T14:32:39.318Z,12.55
2019-03-24T14:33:45.874Z,12.51
2019-03-24T14:34:52.184Z,12.84
2019-03-24T14:35:55.682Z,13.26
2019-03-24T14:37:02.099Z,13.65